sensor_id;sensor_type;location;lat;lon;timestamp;P1;durP1;ratioP1;P2;durP2;ratioP2
79640;SDS011;69115;49.904;14.390;2024-03-23T00:53:29;22.30;;;11.65;;
79640;SDS011;69115;49.904;14.390;2024-03-23T00:55:54;18.80;;;12.00;;
79640;SDS011;69115;49.904;14.390;2024-03-23T00:58:20;20.52;;;12.85;;
79640;SDS011;69115;49.904;14.390;2024-03-23T01:00:48;20.60;;;11.95;;
79640;SDS011;69115;49.904;14.390;2024-03-23T01:03:14;22.23;;;12.45;;
79640;SDS011;69115;49.904;14.390;2024-03-23T01:05:39;19.85;;;11.73;;
79640;SDS011;69115;49.904;14.390;2024-03-23T01:08:04;19.33;;;10.85;;
79640;SDS011;69115;49.904;14.390;2024-03-23T01:10:30;20.30;;;11.25;;
79640;SDS011;69115;49.904;14.390;2024-03-23T01:12:55;20.58;;;12.48;;
79640;SDS011;69115;49.904;14.390;2024-03-23T01:15:21;21.90;;;11.65;;
79640;SDS011;69115;49.904;14.390;2024-03-23T01:17:46;19.98;;;11.88;;
79640;SDS011;69115;49.904;14.390;2024-03-23T01:20:11;20.58;;;12.23;;
79640;SDS011;69115;49.904;14.390;2024-03-23T01:22:37;22.27;;;11.90;;
79640;SDS011;69115;49.904;14.390;2024-03-23T01:25:02;19.27;;;11.75;;
79640;SDS011;69115;49.904;14.390;2024-03-23T01:27:28;19.58;;;11.93;;
79640;SDS011;69115;49.904;14.390;2024-03-23T01:29:53;23.05;;;11.85;;
79640;SDS011;69115;49.904;14.390;2024-03-23T01:32:19;21.40;;;12.10;;
79640;SDS011;69115;49.904;14.390;2024-03-23T01:34:44;20.50;;;11.55;;
79640;SDS011;69115;49.904;14.390;2024-03-23T01:37:10;22.60;;;11.93;;
79640;SDS011;69115;49.904;14.390;2024-03-23T01:39:35;23.40;;;13.02;;
79640;SDS011;69115;49.904;14.390;2024-03-23T01:42:01;21.45;;;12.50;;
79640;SDS011;69115;49.904;14.390;2024-03-23T01:44:26;18.98;;;11.20;;
79640;SDS011;69115;49.904;14.390;2024-03-23T01:46:52;20.02;;;12.15;;
79640;SDS011;69115;49.904;14.390;2024-03-23T01:49:17;21.70;;;11.88;;
79640;SDS011;69115;49.904;14.390;2024-03-23T01:51:42;19.55;;;11.55;;
79640;SDS011;69115;49.904;14.390;2024-03-23T01:54:08;19.77;;;11.68;;
79640;SDS011;69115;49.904;14.390;2024-03-23T01:56:34;19.95;;;10.60;;
79640;SDS011;69115;49.904;14.390;2024-03-23T01:59:03;18.73;;;10.68;;
79640;SDS011;69115;49.904;14.390;2024-03-23T02:01:29;20.02;;;11.70;;
79640;SDS011;69115;49.904;14.390;2024-03-23T02:03:55;20.15;;;11.85;;
79640;SDS011;69115;49.904;14.390;2024-03-23T02:06:21;21.45;;;12.10;;
79640;SDS011;69115;49.904;14.390;2024-03-23T02:08:47;20.92;;;11.18;;
79640;SDS011;69115;49.904;14.390;2024-03-23T02:11:13;18.75;;;11.60;;
79640;SDS011;69115;49.904;14.390;2024-03-23T02:13:38;18.65;;;11.13;;
79640;SDS011;69115;49.904;14.390;2024-03-23T02:16:04;19.63;;;11.23;;
79640;SDS011;69115;49.904;14.390;2024-03-23T02:18:30;19.55;;;11.07;;
79640;SDS011;69115;49.904;14.390;2024-03-23T02:20:55;18.52;;;10.93;;
79640;SDS011;69115;49.904;14.390;2024-03-23T02:23:21;18.58;;;10.65;;
79640;SDS011;69115;49.904;14.390;2024-03-23T02:25:46;16.45;;;10.35;;
79640;SDS011;69115;49.904;14.390;2024-03-23T02:28:12;19.50;;;10.90;;
79640;SDS011;69115;49.904;14.390;2024-03-23T02:30:37;16.25;;;9.80;;
79640;SDS011;69115;49.904;14.390;2024-03-23T02:33:03;18.75;;;11.00;;
79640;SDS011;69115;49.904;14.390;2024-03-23T02:35:28;16.52;;;9.82;;
79640;SDS011;69115;49.904;14.390;2024-03-23T02:37:54;16.30;;;9.82;;
79640;SDS011;69115;49.904;14.390;2024-03-23T02:40:22;18.75;;;10.57;;
79640;SDS011;69115;49.904;14.390;2024-03-23T02:42:48;15.73;;;10.07;;
79640;SDS011;69115;49.904;14.390;2024-03-23T02:45:13;19.08;;;9.88;;
79640;SDS011;69115;49.904;14.390;2024-03-23T02:47:38;17.00;;;10.50;;
79640;SDS011;69115;49.904;14.390;2024-03-23T02:50:04;19.08;;;10.80;;
79640;SDS011;69115;49.904;14.390;2024-03-23T02:52:30;18.33;;;10.18;;
79640;SDS011;69115;49.904;14.390;2024-03-23T02:54:56;17.85;;;10.20;;
79640;SDS011;69115;49.904;14.390;2024-03-23T02:57:21;16.15;;;10.63;;
79640;SDS011;69115;49.904;14.390;2024-03-23T02:59:47;18.35;;;10.50;;
79640;SDS011;69115;49.904;14.390;2024-03-23T03:02:13;16.58;;;9.50;;
79640;SDS011;69115;49.904;14.390;2024-03-23T03:04:38;16.15;;;10.57;;
79640;SDS011;69115;49.904;14.390;2024-03-23T03:07:04;20.60;;;11.27;;
79640;SDS011;69115;49.904;14.390;2024-03-23T03:09:29;17.50;;;10.30;;
79640;SDS011;69115;49.904;14.390;2024-03-23T03:11:55;19.63;;;11.20;;
79640;SDS011;69115;49.904;14.390;2024-03-23T03:14:20;17.85;;;10.77;;
79640;SDS011;69115;49.904;14.390;2024-03-23T03:16:46;20.73;;;11.45;;
79640;SDS011;69115;49.904;14.390;2024-03-23T03:19:11;20.00;;;12.02;;
79640;SDS011;69115;49.904;14.390;2024-03-23T03:21:37;27.48;;;12.68;;
79640;SDS011;69115;49.904;14.390;2024-03-23T03:24:02;18.20;;;10.90;;
79640;SDS011;69115;49.904;14.390;2024-03-23T03:26:28;21.95;;;11.35;;
79640;SDS011;69115;49.904;14.390;2024-03-23T03:28:53;20.97;;;11.37;;
79640;SDS011;69115;49.904;14.390;2024-03-23T03:31:19;19.58;;;11.90;;
79640;SDS011;69115;49.904;14.390;2024-03-23T03:33:45;21.58;;;11.70;;
79640;SDS011;69115;49.904;14.390;2024-03-23T03:36:11;19.55;;;11.30;;
79640;SDS011;69115;49.904;14.390;2024-03-23T03:38:36;20.80;;;12.32;;
79640;SDS011;69115;49.904;14.390;2024-03-23T03:41:03;20.58;;;12.55;;
79640;SDS011;69115;49.904;14.390;2024-03-23T03:43:29;23.33;;;12.02;;
79640;SDS011;69115;49.904;14.390;2024-03-23T03:45:55;20.77;;;12.27;;
79640;SDS011;69115;49.904;14.390;2024-03-23T03:48:22;22.17;;;12.60;;
79640;SDS011;69115;49.904;14.390;2024-03-23T03:50:47;19.27;;;11.68;;
79640;SDS011;69115;49.904;14.390;2024-03-23T03:53:12;22.52;;;12.20;;
79640;SDS011;69115;49.904;14.390;2024-03-23T03:55:38;23.67;;;12.25;;
79640;SDS011;69115;49.904;14.390;2024-03-23T03:58:03;22.60;;;12.25;;
79640;SDS011;69115;49.904;14.390;2024-03-23T04:00:29;22.02;;;13.23;;
79640;SDS011;69115;49.904;14.390;2024-03-23T04:02:55;20.17;;;11.27;;
79640;SDS011;69115;49.904;14.390;2024-03-23T04:05:21;19.63;;;11.70;;
79640;SDS011;69115;49.904;14.390;2024-03-23T04:07:46;22.77;;;11.70;;
79640;SDS011;69115;49.904;14.390;2024-03-23T04:10:12;21.42;;;11.85;;
79640;SDS011;69115;49.904;14.390;2024-03-23T04:12:37;20.83;;;11.80;;
79640;SDS011;69115;49.904;14.390;2024-03-23T04:15:03;18.55;;;11.98;;
79640;SDS011;69115;49.904;14.390;2024-03-23T04:17:29;20.42;;;11.98;;
79640;SDS011;69115;49.904;14.390;2024-03-23T04:19:57;19.55;;;11.73;;
79640;SDS011;69115;49.904;14.390;2024-03-23T04:22:23;21.67;;;11.90;;
79640;SDS011;69115;49.904;14.390;2024-03-23T04:24:54;22.02;;;11.52;;
79640;SDS011;69115;49.904;14.390;2024-03-23T04:27:20;19.70;;;11.32;;
79640;SDS011;69115;49.904;14.390;2024-03-23T04:29:47;21.10;;;12.68;;
79640;SDS011;69115;49.904;14.390;2024-03-23T04:32:15;21.58;;;12.18;;
79640;SDS011;69115;49.904;14.390;2024-03-23T04:34:41;21.05;;;11.60;;
79640;SDS011;69115;49.904;14.390;2024-03-23T04:37:08;20.33;;;11.77;;
79640;SDS011;69115;49.904;14.390;2024-03-23T04:39:34;22.90;;;11.93;;
79640;SDS011;69115;49.904;14.390;2024-03-23T04:41:59;20.67;;;11.20;;
79640;SDS011;69115;49.904;14.390;2024-03-23T04:44:26;22.80;;;11.63;;
79640;SDS011;69115;49.904;14.390;2024-03-23T04:46:51;20.92;;;11.65;;
79640;SDS011;69115;49.904;14.390;2024-03-23T04:49:16;20.50;;;11.63;;
79640;SDS011;69115;49.904;14.390;2024-03-23T04:51:42;19.70;;;12.13;;
79640;SDS011;69115;49.904;14.390;2024-03-23T04:54:11;21.80;;;12.93;;
79640;SDS011;69115;49.904;14.390;2024-03-23T04:56:39;20.52;;;12.25;;
79640;SDS011;69115;49.904;14.390;2024-03-23T04:59:05;25.60;;;12.90;;
79640;SDS011;69115;49.904;14.390;2024-03-23T05:01:30;25.02;;;13.38;;
79640;SDS011;69115;49.904;14.390;2024-03-23T05:03:58;24.45;;;13.20;;
79640;SDS011;69115;49.904;14.390;2024-03-23T05:06:24;19.10;;;10.77;;
79640;SDS011;69115;49.904;14.390;2024-03-23T05:08:50;18.98;;;11.57;;
79640;SDS011;69115;49.904;14.390;2024-03-23T05:11:16;19.42;;;11.30;;
79640;SDS011;69115;49.904;14.390;2024-03-23T05:13:42;16.77;;;10.10;;
79640;SDS011;69115;49.904;14.390;2024-03-23T05:16:07;17.88;;;9.77;;
79640;SDS011;69115;49.904;14.390;2024-03-23T05:18:33;18.05;;;10.55;;
79640;SDS011;69115;49.904;14.390;2024-03-23T05:20:59;19.05;;;11.25;;
79640;SDS011;69115;49.904;14.390;2024-03-23T05:23:25;20.38;;;9.90;;
79640;SDS011;69115;49.904;14.390;2024-03-23T05:25:53;22.13;;;10.48;;
79640;SDS011;69115;49.904;14.390;2024-03-23T05:28:19;16.60;;;9.68;;
79640;SDS011;69115;49.904;14.390;2024-03-23T05:30:55;17.98;;;10.13;;
79640;SDS011;69115;49.904;14.390;2024-03-23T05:33:22;15.52;;;9.68;;
79640;SDS011;69115;49.904;14.390;2024-03-23T05:35:55;17.88;;;10.05;;
79640;SDS011;69115;49.904;14.390;2024-03-23T05:38:21;15.13;;;9.30;;
79640;SDS011;69115;49.904;14.390;2024-03-23T05:40:56;16.20;;;9.70;;
79640;SDS011;69115;49.904;14.390;2024-03-23T05:43:22;15.52;;;10.13;;
79640;SDS011;69115;49.904;14.390;2024-03-23T05:45:54;19.30;;;11.55;;
79640;SDS011;69115;49.904;14.390;2024-03-23T05:48:20;18.98;;;11.52;;
79640;SDS011;69115;49.904;14.390;2024-03-23T05:50:46;21.65;;;11.05;;
79640;SDS011;69115;49.904;14.390;2024-03-23T05:53:12;17.85;;;9.93;;
79640;SDS011;69115;49.904;14.390;2024-03-23T05:55:38;15.90;;;10.00;;
79640;SDS011;69115;49.904;14.390;2024-03-23T05:58:03;17.05;;;9.05;;
79640;SDS011;69115;49.904;14.390;2024-03-23T06:00:29;15.55;;;9.95;;
79640;SDS011;69115;49.904;14.390;2024-03-23T06:02:54;16.40;;;10.32;;
79640;SDS011;69115;49.904;14.390;2024-03-23T06:05:19;16.73;;;10.35;;
79640;SDS011;69115;49.904;14.390;2024-03-23T06:07:45;17.15;;;10.70;;
79640;SDS011;69115;49.904;14.390;2024-03-23T06:10:10;15.93;;;9.52;;
79640;SDS011;69115;49.904;14.390;2024-03-23T06:12:35;17.85;;;10.68;;
79640;SDS011;69115;49.904;14.390;2024-03-23T06:15:01;19.25;;;10.98;;
79640;SDS011;69115;49.904;14.390;2024-03-23T06:17:27;16.42;;;10.02;;
79640;SDS011;69115;49.904;14.390;2024-03-23T06:19:52;20.83;;;12.40;;
79640;SDS011;69115;49.904;14.390;2024-03-23T06:22:18;20.77;;;11.07;;
79640;SDS011;69115;49.904;14.390;2024-03-23T06:24:44;19.52;;;10.88;;
79640;SDS011;69115;49.904;14.390;2024-03-23T06:27:09;16.55;;;10.70;;
79640;SDS011;69115;49.904;14.390;2024-03-23T06:29:35;19.23;;;10.82;;
79640;SDS011;69115;49.904;14.390;2024-03-23T06:32:01;18.92;;;10.68;;
79640;SDS011;69115;49.904;14.390;2024-03-23T06:34:27;21.67;;;11.85;;
79640;SDS011;69115;49.904;14.390;2024-03-23T06:36:52;19.80;;;10.95;;
79640;SDS011;69115;49.904;14.390;2024-03-23T06:39:18;19.25;;;11.57;;
79640;SDS011;69115;49.904;14.390;2024-03-23T06:41:50;20.17;;;11.60;;
79640;SDS011;69115;49.904;14.390;2024-03-23T06:44:17;21.83;;;12.60;;
79640;SDS011;69115;49.904;14.390;2024-03-23T06:46:43;18.60;;;11.68;;
79640;SDS011;69115;49.904;14.390;2024-03-23T06:49:08;24.42;;;13.48;;
79640;SDS011;69115;49.904;14.390;2024-03-23T06:51:33;23.05;;;13.48;;
79640;SDS011;69115;49.904;14.390;2024-03-23T06:53:59;22.75;;;12.68;;
79640;SDS011;69115;49.904;14.390;2024-03-23T06:56:24;22.85;;;12.98;;
79640;SDS011;69115;49.904;14.390;2024-03-23T06:58:49;24.25;;;13.40;;
79640;SDS011;69115;49.904;14.390;2024-03-23T07:01:15;21.85;;;13.00;;
79640;SDS011;69115;49.904;14.390;2024-03-23T07:03:40;26.30;;;14.15;;
79640;SDS011;69115;49.904;14.390;2024-03-23T07:06:06;22.48;;;13.65;;
79640;SDS011;69115;49.904;14.390;2024-03-23T07:08:31;24.73;;;14.60;;
79640;SDS011;69115;49.904;14.390;2024-03-23T07:10:56;23.10;;;13.27;;
79640;SDS011;69115;49.904;14.390;2024-03-23T07:13:22;25.08;;;13.00;;
79640;SDS011;69115;49.904;14.390;2024-03-23T07:15:51;26.80;;;14.80;;
79640;SDS011;69115;49.904;14.390;2024-03-23T07:18:17;22.08;;;12.73;;
79640;SDS011;69115;49.904;14.390;2024-03-23T07:20:45;23.50;;;13.35;;
79640;SDS011;69115;49.904;14.390;2024-03-23T07:23:17;19.00;;;12.63;;
79640;SDS011;69115;49.904;14.390;2024-03-23T07:25:42;21.27;;;14.32;;
79640;SDS011;69115;49.904;14.390;2024-03-23T07:28:08;22.25;;;13.65;;
79640;SDS011;69115;49.904;14.390;2024-03-23T07:30:33;23.00;;;13.38;;
79640;SDS011;69115;49.904;14.390;2024-03-23T07:32:58;20.83;;;12.65;;
79640;SDS011;69115;49.904;14.390;2024-03-23T07:35:24;22.77;;;13.52;;
79640;SDS011;69115;49.904;14.390;2024-03-23T07:37:49;22.15;;;12.88;;
79640;SDS011;69115;49.904;14.390;2024-03-23T07:40:15;24.00;;;14.13;;
79640;SDS011;69115;49.904;14.390;2024-03-23T07:42:40;26.35;;;14.25;;
79640;SDS011;69115;49.904;14.390;2024-03-23T07:45:06;24.92;;;14.75;;
79640;SDS011;69115;49.904;14.390;2024-03-23T07:47:31;20.30;;;12.88;;
79640;SDS011;69115;49.904;14.390;2024-03-23T07:49:57;20.11;;;12.09;;
79640;SDS011;69115;49.904;14.390;2024-03-23T07:52:22;17.60;;;10.90;;
79640;SDS011;69115;49.904;14.390;2024-03-23T07:54:48;19.30;;;10.60;;
79640;SDS011;69115;49.904;14.390;2024-03-23T07:57:13;16.57;;;10.50;;
79640;SDS011;69115;49.904;14.390;2024-03-23T07:59:38;16.42;;;10.65;;
79640;SDS011;69115;49.904;14.390;2024-03-23T08:02:04;19.02;;;10.63;;
79640;SDS011;69115;49.904;14.390;2024-03-23T08:04:30;15.98;;;9.05;;
79640;SDS011;69115;49.904;14.390;2024-03-23T08:06:55;14.80;;;9.45;;
79640;SDS011;69115;49.904;14.390;2024-03-23T08:09:21;13.77;;;8.63;;
79640;SDS011;69115;49.904;14.390;2024-03-23T08:11:46;15.80;;;8.45;;
79640;SDS011;69115;49.904;14.390;2024-03-23T08:14:11;11.45;;;7.95;;
79640;SDS011;69115;49.904;14.390;2024-03-23T08:16:37;12.13;;;7.70;;
79640;SDS011;69115;49.904;14.390;2024-03-23T08:19:02;9.38;;;6.03;;
79640;SDS011;69115;49.904;14.390;2024-03-23T08:21:29;13.20;;;5.97;;
79640;SDS011;69115;49.904;14.390;2024-03-23T08:23:54;9.00;;;6.43;;
79640;SDS011;69115;49.904;14.390;2024-03-23T08:26:19;8.77;;;6.30;;
79640;SDS011;69115;49.904;14.390;2024-03-23T08:28:45;8.57;;;5.45;;
79640;SDS011;69115;49.904;14.390;2024-03-23T08:31:10;8.38;;;5.75;;
79640;SDS011;69115;49.904;14.390;2024-03-23T08:33:37;9.38;;;5.43;;
79640;SDS011;69115;49.904;14.390;2024-03-23T08:36:05;7.85;;;5.15;;
79640;SDS011;69115;49.904;14.390;2024-03-23T08:38:32;8.15;;;5.40;;
79640;SDS011;69115;49.904;14.390;2024-03-23T08:40:58;7.25;;;4.50;;
79640;SDS011;69115;49.904;14.390;2024-03-23T08:43:24;6.47;;;4.68;;
79640;SDS011;69115;49.904;14.390;2024-03-23T08:45:49;7.03;;;4.70;;
79640;SDS011;69115;49.904;14.390;2024-03-23T08:48:15;8.40;;;4.85;;
79640;SDS011;69115;49.904;14.390;2024-03-23T08:50:40;6.93;;;3.70;;
79640;SDS011;69115;49.904;14.390;2024-03-23T08:53:07;7.13;;;3.72;;
79640;SDS011;69115;49.904;14.390;2024-03-23T08:55:33;7.70;;;4.30;;
79640;SDS011;69115;49.904;14.390;2024-03-23T08:57:58;7.57;;;4.80;;
79640;SDS011;69115;49.904;14.390;2024-03-23T09:00:25;7.50;;;4.28;;
79640;SDS011;69115;49.904;14.390;2024-03-23T09:02:50;8.27;;;4.20;;
79640;SDS011;69115;49.904;14.390;2024-03-23T09:05:16;8.43;;;4.30;;
79640;SDS011;69115;49.904;14.390;2024-03-23T09:07:41;5.18;;;3.92;;
79640;SDS011;69115;49.904;14.390;2024-03-23T09:10:07;6.20;;;4.00;;
79640;SDS011;69115;49.904;14.390;2024-03-23T09:12:32;5.68;;;3.50;;
79640;SDS011;69115;49.904;14.390;2024-03-23T09:14:58;9.55;;;4.65;;
79640;SDS011;69115;49.904;14.390;2024-03-23T09:17:23;10.95;;;4.85;;
79640;SDS011;69115;49.904;14.390;2024-03-23T09:19:48;6.93;;;4.80;;
79640;SDS011;69115;49.904;14.390;2024-03-23T09:22:14;8.20;;;4.93;;
79640;SDS011;69115;49.904;14.390;2024-03-23T09:24:39;8.48;;;5.50;;
79640;SDS011;69115;49.904;14.390;2024-03-23T09:27:05;7.78;;;5.13;;
79640;SDS011;69115;49.904;14.390;2024-03-23T09:29:30;9.60;;;5.80;;
79640;SDS011;69115;49.904;14.390;2024-03-23T09:31:56;8.65;;;6.13;;
79640;SDS011;69115;49.904;14.390;2024-03-23T09:34:21;9.02;;;5.80;;
79640;SDS011;69115;49.904;14.390;2024-03-23T09:36:47;8.00;;;5.10;;
79640;SDS011;69115;49.904;14.390;2024-03-23T09:39:12;6.53;;;3.83;;
79640;SDS011;69115;49.904;14.390;2024-03-23T09:41:38;7.47;;;4.10;;
79640;SDS011;69115;49.904;14.390;2024-03-23T09:44:04;6.82;;;3.63;;
79640;SDS011;69115;49.904;14.390;2024-03-23T09:46:30;7.28;;;3.63;;
79640;SDS011;69115;49.904;14.390;2024-03-23T09:48:59;6.03;;;3.20;;
79640;SDS011;69115;49.904;14.390;2024-03-23T09:51:25;6.90;;;3.42;;
79640;SDS011;69115;49.904;14.390;2024-03-23T09:53:50;6.40;;;3.40;;
79640;SDS011;69115;49.904;14.390;2024-03-23T09:56:18;5.97;;;3.38;;
79640;SDS011;69115;49.904;14.390;2024-03-23T09:58:43;5.40;;;3.38;;
79640;SDS011;69115;49.904;14.390;2024-03-23T10:01:08;4.82;;;3.30;;
79640;SDS011;69115;49.904;14.390;2024-03-23T10:03:42;6.13;;;3.60;;
79640;SDS011;69115;49.904;14.390;2024-03-23T10:06:08;4.60;;;3.13;;
79640;SDS011;69115;49.904;14.390;2024-03-23T10:08:33;5.85;;;3.35;;
79640;SDS011;69115;49.904;14.390;2024-03-23T10:11:12;5.28;;;2.95;;
79640;SDS011;69115;49.904;14.390;2024-03-23T10:13:38;6.20;;;3.25;;
79640;SDS011;69115;49.904;14.390;2024-03-23T10:16:06;6.55;;;3.70;;
79640;SDS011;69115;49.904;14.390;2024-03-23T10:18:32;4.80;;;3.60;;
79640;SDS011;69115;49.904;14.390;2024-03-23T10:23:31;7.93;;;4.50;;
79640;SDS011;69115;49.904;14.390;2024-03-23T10:26:12;7.15;;;4.70;;
79640;SDS011;69115;49.904;14.390;2024-03-23T10:31:26;7.13;;;4.72;;
79640;SDS011;69115;49.904;14.390;2024-03-23T10:33:55;6.80;;;4.65;;
79640;SDS011;69115;49.904;14.390;2024-03-23T10:36:24;10.55;;;5.13;;
79640;SDS011;69115;49.904;14.390;2024-03-23T10:38:53;6.45;;;4.20;;
79640;SDS011;69115;49.904;14.390;2024-03-23T10:41:19;7.00;;;4.53;;
79640;SDS011;69115;49.904;14.390;2024-03-23T10:43:45;11.38;;;4.82;;
79640;SDS011;69115;49.904;14.390;2024-03-23T10:46:11;7.53;;;5.05;;
79640;SDS011;69115;49.904;14.390;2024-03-23T10:48:37;6.72;;;4.15;;
79640;SDS011;69115;49.904;14.390;2024-03-23T10:51:03;6.20;;;4.07;;
79640;SDS011;69115;49.904;14.390;2024-03-23T10:53:29;5.55;;;3.53;;
79640;SDS011;69115;49.904;14.390;2024-03-23T10:55:55;7.95;;;3.80;;
79640;SDS011;69115;49.904;14.390;2024-03-23T10:58:23;6.18;;;3.58;;
79640;SDS011;69115;49.904;14.390;2024-03-23T11:00:52;6.10;;;3.42;;
79640;SDS011;69115;49.904;14.390;2024-03-23T11:06:03;5.38;;;3.28;;
79640;SDS011;69115;49.904;14.390;2024-03-23T11:08:39;5.90;;;3.50;;
79640;SDS011;69115;49.904;14.390;2024-03-23T11:11:11;7.50;;;3.60;;
79640;SDS011;69115;49.904;14.390;2024-03-23T11:13:37;5.90;;;3.97;;
79640;SDS011;69115;49.904;14.390;2024-03-23T11:16:22;7.03;;;3.38;;
79640;SDS011;69115;49.904;14.390;2024-03-23T11:18:48;4.95;;;3.50;;
79640;SDS011;69115;49.904;14.390;2024-03-23T11:26:44;6.05;;;3.92;;
79640;SDS011;69115;49.904;14.390;2024-03-23T11:29:09;7.15;;;3.97;;
79640;SDS011;69115;49.904;14.390;2024-03-23T11:31:38;7.30;;;4.28;;
79640;SDS011;69115;49.904;14.390;2024-03-23T11:34:04;5.20;;;3.92;;
79640;SDS011;69115;49.904;14.390;2024-03-23T11:36:30;5.95;;;4.07;;
79640;SDS011;69115;49.904;14.390;2024-03-23T11:38:57;7.15;;;4.15;;
79640;SDS011;69115;49.904;14.390;2024-03-23T11:41:23;5.32;;;3.67;;
79640;SDS011;69115;49.904;14.390;2024-03-23T11:43:48;6.55;;;3.42;;
79640;SDS011;69115;49.904;14.390;2024-03-23T11:46:21;7.05;;;3.92;;
79640;SDS011;69115;49.904;14.390;2024-03-23T11:48:50;6.20;;;3.85;;
79640;SDS011;69115;49.904;14.390;2024-03-23T11:51:19;5.43;;;3.40;;
79640;SDS011;69115;49.904;14.390;2024-03-23T11:53:45;8.13;;;3.33;;
79640;SDS011;69115;49.904;14.390;2024-03-23T11:56:13;5.00;;;3.28;;
79640;SDS011;69115;49.904;14.390;2024-03-23T11:58:38;5.25;;;3.22;;
79640;SDS011;69115;49.904;14.390;2024-03-23T12:01:04;6.35;;;3.30;;
79640;SDS011;69115;49.904;14.390;2024-03-23T12:03:30;5.18;;;3.03;;
79640;SDS011;69115;49.904;14.390;2024-03-23T12:05:58;4.70;;;3.15;;
79640;SDS011;69115;49.904;14.390;2024-03-23T12:11:05;4.60;;;2.88;;
79640;SDS011;69115;49.904;14.390;2024-03-23T12:13:31;5.07;;;2.53;;
79640;SDS011;69115;49.904;14.390;2024-03-23T12:15:57;4.78;;;2.72;;
79640;SDS011;69115;49.904;14.390;2024-03-23T12:18:53;6.15;;;2.80;;
79640;SDS011;69115;49.904;14.390;2024-03-23T12:21:30;11.10;;;3.90;;
79640;SDS011;69115;49.904;14.390;2024-03-23T12:23:56;8.38;;;3.38;;
79640;SDS011;69115;49.904;14.390;2024-03-23T12:26:21;8.55;;;3.97;;
79640;SDS011;69115;49.904;14.390;2024-03-23T12:28:48;6.50;;;3.33;;
79640;SDS011;69115;49.904;14.390;2024-03-23T12:31:13;5.55;;;3.58;;
79640;SDS011;69115;49.904;14.390;2024-03-23T12:33:39;6.60;;;3.85;;
79640;SDS011;69115;49.904;14.390;2024-03-23T12:36:04;7.90;;;4.47;;
79640;SDS011;69115;49.904;14.390;2024-03-23T12:38:30;8.80;;;4.70;;
79640;SDS011;69115;49.904;14.390;2024-03-23T12:40:55;5.75;;;3.42;;
79640;SDS011;69115;49.904;14.390;2024-03-23T12:43:21;5.53;;;3.60;;
79640;SDS011;69115;49.904;14.390;2024-03-23T12:45:46;4.55;;;3.33;;
79640;SDS011;69115;49.904;14.390;2024-03-23T12:48:12;4.88;;;2.88;;
79640;SDS011;69115;49.904;14.390;2024-03-23T12:50:38;4.05;;;2.75;;
79640;SDS011;69115;49.904;14.390;2024-03-23T12:53:03;4.25;;;2.80;;
79640;SDS011;69115;49.904;14.390;2024-03-23T12:55:29;4.65;;;2.97;;
79640;SDS011;69115;49.904;14.390;2024-03-23T12:57:54;4.03;;;2.40;;
79640;SDS011;69115;49.904;14.390;2024-03-23T13:00:20;4.82;;;2.30;;
79640;SDS011;69115;49.904;14.390;2024-03-23T13:02:48;3.13;;;2.20;;
79640;SDS011;69115;49.904;14.390;2024-03-23T13:05:13;3.63;;;2.05;;
79640;SDS011;69115;49.904;14.390;2024-03-23T13:07:38;3.95;;;1.77;;
79640;SDS011;69115;49.904;14.390;2024-03-23T13:10:04;3.42;;;2.15;;
79640;SDS011;69115;49.904;14.390;2024-03-23T13:12:31;2.53;;;1.60;;
79640;SDS011;69115;49.904;14.390;2024-03-23T13:14:57;2.50;;;1.77;;
79640;SDS011;69115;49.904;14.390;2024-03-23T13:17:23;4.13;;;1.50;;
79640;SDS011;69115;49.904;14.390;2024-03-23T13:19:48;2.90;;;1.70;;
79640;SDS011;69115;49.904;14.390;2024-03-23T13:22:13;2.10;;;1.33;;
79640;SDS011;69115;49.904;14.390;2024-03-23T13:24:39;1.65;;;1.30;;
79640;SDS011;69115;49.904;14.390;2024-03-23T13:27:04;2.20;;;1.30;;
79640;SDS011;69115;49.904;14.390;2024-03-23T13:29:32;1.25;;;1.15;;
79640;SDS011;69115;49.904;14.390;2024-03-23T13:31:59;1.20;;;1.10;;
79640;SDS011;69115;49.904;14.390;2024-03-23T13:34:24;1.00;;;0.90;;
79640;SDS011;69115;49.904;14.390;2024-03-23T13:36:50;1.20;;;1.10;;
79640;SDS011;69115;49.904;14.390;2024-03-23T13:39:16;1.73;;;1.20;;
79640;SDS011;69115;49.904;14.390;2024-03-23T13:41:45;1.63;;;1.17;;
79640;SDS011;69115;49.904;14.390;2024-03-23T13:44:11;1.52;;;1.10;;
79640;SDS011;69115;49.904;14.390;2024-03-23T13:46:41;1.98;;;1.23;;
79640;SDS011;69115;49.904;14.390;2024-03-23T13:49:29;1.40;;;1.13;;
79640;SDS011;69115;49.904;14.390;2024-03-23T13:51:56;1.63;;;1.00;;
79640;SDS011;69115;49.904;14.390;2024-03-23T13:54:25;2.08;;;1.38;;
79640;SDS011;69115;49.904;14.390;2024-03-23T13:56:51;1.48;;;1.17;;
79640;SDS011;69115;49.904;14.390;2024-03-23T13:59:17;1.30;;;1.10;;
79640;SDS011;69115;49.904;14.390;2024-03-23T14:01:45;1.63;;;1.30;;
79640;SDS011;69115;49.904;14.390;2024-03-23T14:04:11;2.10;;;1.42;;
79640;SDS011;69115;49.904;14.390;2024-03-23T14:06:37;2.05;;;1.50;;
79640;SDS011;69115;49.904;14.390;2024-03-23T14:09:03;1.40;;;1.02;;
79640;SDS011;69115;49.904;14.390;2024-03-23T14:11:35;1.65;;;1.30;;
79640;SDS011;69115;49.904;14.390;2024-03-23T14:14:02;1.50;;;1.00;;
79640;SDS011;69115;49.904;14.390;2024-03-23T14:16:28;1.88;;;1.17;;
79640;SDS011;69115;49.904;14.390;2024-03-23T14:18:54;1.70;;;1.30;;
79640;SDS011;69115;49.904;14.390;2024-03-23T14:21:19;1.50;;;1.20;;
79640;SDS011;69115;49.904;14.390;2024-03-23T14:23:44;2.42;;;1.33;;
79640;SDS011;69115;49.904;14.390;2024-03-23T14:26:10;2.58;;;1.58;;
79640;SDS011;69115;49.904;14.390;2024-03-23T14:28:35;2.70;;;1.50;;
79640;SDS011;69115;49.904;14.390;2024-03-23T14:31:00;3.25;;;2.15;;
79640;SDS011;69115;49.904;14.390;2024-03-23T14:33:26;2.20;;;1.42;;
79640;SDS011;69115;49.904;14.390;2024-03-23T14:35:54;3.72;;;1.50;;
79640;SDS011;69115;49.904;14.390;2024-03-23T14:38:23;2.97;;;1.50;;
79640;SDS011;69115;49.904;14.390;2024-03-23T14:40:48;3.13;;;1.70;;
79640;SDS011;69115;49.904;14.390;2024-03-23T14:43:14;3.42;;;1.60;;
79640;SDS011;69115;49.904;14.390;2024-03-23T14:45:48;2.40;;;1.52;;
79640;SDS011;69115;49.904;14.390;2024-03-23T14:48:31;3.20;;;1.70;;
79640;SDS011;69115;49.904;14.390;2024-03-23T14:50:57;3.20;;;1.70;;
79640;SDS011;69115;49.904;14.390;2024-03-23T14:53:24;3.30;;;1.90;;
79640;SDS011;69115;49.904;14.390;2024-03-23T14:55:50;2.40;;;1.63;;
79640;SDS011;69115;49.904;14.390;2024-03-23T14:58:15;3.45;;;1.80;;
79640;SDS011;69115;49.904;14.390;2024-03-23T15:00:41;2.28;;;1.52;;
79640;SDS011;69115;49.904;14.390;2024-03-23T15:03:06;2.88;;;1.60;;
79640;SDS011;69115;49.904;14.390;2024-03-23T15:05:31;2.60;;;1.65;;
79640;SDS011;69115;49.904;14.390;2024-03-23T15:07:57;2.30;;;1.50;;
79640;SDS011;69115;49.904;14.390;2024-03-23T15:10:23;2.78;;;1.65;;
79640;SDS011;69115;49.904;14.390;2024-03-23T15:12:48;2.40;;;1.58;;
79640;SDS011;69115;49.904;14.390;2024-03-23T15:15:14;3.05;;;1.80;;
79640;SDS011;69115;49.904;14.390;2024-03-23T15:17:40;4.60;;;1.95;;
79640;SDS011;69115;49.904;14.390;2024-03-23T15:20:09;2.53;;;1.40;;
79640;SDS011;69115;49.904;14.390;2024-03-23T15:22:36;3.70;;;1.67;;
79640;SDS011;69115;49.904;14.390;2024-03-23T15:25:02;2.97;;;1.60;;